Chang Sheng — V3PK — position and weather

sailwx.info

Track history (hours):
 
Tides and Currents Weather Stations Pressure Air Temp Water Temp Dewpoint Dewpoint Depression Visibility Wind Speed Wind Dir Waves Ship Positions

Chang Sheng

Last reported at 2015-Jul-04 17:24 UTC. Time now 2015-Jul-05 06:05 UTC.
Position N 37°42' E 122°35'.

Length 86 m; draft 5.1 m.

Type: Cargo ship. MMSI: 312161000.

Date/timePositionNaut miles runAvg speedWind from/ knotsBaromVisibWave heightAir tempDewpointWater temp
2015-Jul-04 17:24N 37°42' E 122°35'4310.3
2015-Jul-04 13:12N 38°07' E 121°51'2110.0
2015-Jul-04 11:08N 38°18' E 121°28'610.0
2015-Jul-04 10:34N 38°21' E 121°22'78 8.7
2015-Jul-04 01:32N 38°42' E 119°45'1010.3
2015-Jul-04 00:31N 38°43' E 119°32'78 9.8
2015-Jul-03 16:33N 38°57' E 117°54'6 6.3
2015-Jul-03 15:33N 38°59' E 117°46'0 0.0
2015-Jul-03 14:24N 38°59' E 117°46'0 0.0
2015-Jul-03 13:30N 38°59' E 117°46'0 0.0
2015-Jul-03 12:30N 38°59' E 117°46'0 0.0
2015-Jul-03 11:30N 38°59' E 117°46'0 0.0
2015-Jul-03 10:30N 38°59' E 117°46'0 0.0
2015-Jul-03 09:18N 38°59' E 117°46'0 0.0
2015-Jul-03 08:30N 38°59' E 117°46'0 0.0
2015-Jul-03 07:30N 38°59' E 117°46'0 0.0
2015-Jul-03 06:30N 38°59' E 117°46'0 0.0
2015-Jul-03 05:30N 38°59' E 117°46'0 0.0
2015-Jul-03 04:30N 38°59' E 117°46'0 0.0
2015-Jul-03 03:30N 38°59' E 117°46'0 0.0
2015-Jul-03 02:30N 38°59' E 117°46'0 0.0
2015-Jul-03 01:24N 38°59' E 117°46'0 0.0
2015-Jul-03 00:29N 38°59' E 117°46'0 0.0
2015-Jul-02 23:29N 38°59' E 117°46'0 0.0
2015-Jul-02 22:33N 38°59' E 117°46'8 7.8
2015-Jul-02 21:33N 38°57' E 117°55'13 5.9
2015-Jul-02 19:23N 38°53' E 118°11'43 8.6
2015-Jul-02 14:19N 38°43' E 119°05'7 8.6
2015-Jul-02 13:33N 38°40' E 119°13'8 8.5
2015-Jul-02 12:33N 38°36' E 119°22'8 8.5
2015-Jul-02 11:33N 38°31' E 119°31'8 8.3
2015-Jul-02 10:33N 38°27' E 119°40'9 8.7
2015-Jul-02 09:32N 38°23' E 119°50'10 9.9
2015-Jul-02 08:32N 38°18' E 120°01'2311.3
2015-Jul-02 06:30N 38°06' E 120°26'1111.7
2015-Jul-02 05:31N 38°02' E 120°40'1212.1
2015-Jul-02 04:33N 37°60' E 120°54'1111.1
2015-Jul-02 03:32N 37°53' E 121°06'1110.8
2015-Jul-02 02:30N 37°44' E 121°15'7 7.1
2015-Jul-02 01:33N 37°38' E 121°15'5 4.8
2015-Jul-02 00:25N 37°38' E 121°08'0 0.0
2015-Jul-01 23:31N 37°38' E 121°08'0 0.0
2015-Jul-01 22:31N 37°38' E 121°08'0 0.0
2015-Jul-01 21:31N 37°38' E 121°08'0 0.0
2015-Jul-01 20:28N 37°38' E 121°08'0 0.0
2015-Jul-01 19:31N 37°38' E 121°08'0 0.0
2015-Jul-01 18:31N 37°38' E 121°08'0 0.0
2015-Jul-01 17:31N 37°38' E 121°08'0 0.0
2015-Jul-01 16:31N 37°38' E 121°08'0 0.0
2015-Jul-01 15:31N 37°38' E 121°08'0 0.0
2015-Jul-01 14:31N 37°38' E 121°08'0 0.0
2015-Jul-01 13:31N 37°38' E 121°08'0 0.0
2015-Jul-01 12:31N 37°38' E 121°08'0 0.0
2015-Jul-01 11:31N 37°38' E 121°08'0 0.0
2015-Jul-01 10:31N 37°38' E 121°08'0 0.0
2015-Jul-01 09:31N 37°38' E 121°08'0 0.0
2015-Jul-01 08:28N 37°38' E 121°08'0 0.0
2015-Jul-01 07:28N 37°38' E 121°08'0 0.0
2015-Jul-01 06:16N 37°38' E 121°08'0 0.0
2015-Jul-01 05:31N 37°38' E 121°08'0 0.0
2015-Jul-01 04:31N 37°38' E 121°08'0 0.0
2015-Jul-01 03:31N 37°38' E 121°08'0 0.0
2015-Jul-01 02:31N 37°38' E 121°08'0 0.0
2015-Jul-01 01:25N 37°38' E 121°08'0 0.0
2015-Jul-01 00:31N 37°38' E 121°08'0 0.0
2015-Jun-30 23:32N 37°38' E 121°08'0 0.0
2015-Jun-30 22:29N 37°38' E 121°08'0 0.0
2015-Jun-30 21:32N 37°38' E 121°08'0 0.0
2015-Jun-30 20:32N 37°38' E 121°08'0 0.0
2015-Jun-30 19:32N 37°38' E 121°08'0 0.0
2015-Jun-30 18:32N 37°38' E 121°08'0 0.0
2015-Jun-30 17:32N 37°38' E 121°08'0 0.0
2015-Jun-30 16:32N 37°38' E 121°08'0 0.0
2015-Jun-30 15:29N 37°38' E 121°08'0 0.0
2015-Jun-30 14:32N 37°38' E 121°08'0 0.0
2015-Jun-30 13:32N 37°38' E 121°08'0 0.0
2015-Jun-30 12:32N 37°38' E 121°08'0 0.0
2015-Jun-30 11:26N 37°38' E 121°08'0 0.0
2015-Jun-30 10:29N 37°38' E 121°08'0 0.0
2015-Jun-30 09:32N 37°38' E 121°08'0 0.0
2015-Jun-30 08:32N 37°38' E 121°08'0 0.0
2015-Jun-30 07:32N 37°38' E 121°08'0 0.0
2015-Jun-30 06:32N 37°38' E 121°08'0 0.0
2015-Jun-30 05:32N 37°38' E 121°08'0 0.0
2015-Jun-30 04:32N 37°38' E 121°08'0 0.0
2015-Jun-30 03:32N 37°38' E 121°08'2 1.7
2015-Jun-30 02:33N 37°37' E 121°10'8 7.8
2015-Jun-30 01:33N 37°40' E 121°20'7 7.2
2015-Jun-30 00:34N 37°39' E 121°29'0 0.3
2015-Jun-29 23:32N 37°39' E 121°29'0 0.0
2015-Jun-29 22:32N 37°39' E 121°29'0 0.0
2015-Jun-29 21:32N 37°39' E 121°29'0 0.0
2015-Jun-29 20:32N 37°39' E 121°29'0 0.0
2015-Jun-29 19:32N 37°39' E 121°29'0 0.0
2015-Jun-29 18:32N 37°39' E 121°29'0 0.0
2015-Jun-29 17:32N 37°39' E 121°29'0 0.0
2015-Jun-29 16:32N 37°39' E 121°29'0 0.0
2015-Jun-29 15:32N 37°39' E 121°29'0 0.0
2015-Jun-29 14:32N 37°39' E 121°29'0 0.0
2015-Jun-29 13:32N 37°39' E 121°29'0 0.0
2015-Jun-29 12:32N 37°39' E 121°29'0 0.0
2015-Jun-29 11:32N 37°39' E 121°29'0 0.0
2015-Jun-29 10:32N 37°39' E 121°29'0 0.0
2015-Jun-29 09:29N 37°39' E 121°29'0 0.0
2015-Jun-29 08:32N 37°39' E 121°29'0 0.0
2015-Jun-29 07:32N 37°39' E 121°29'0 0.1
2015-Jun-29 06:32N 37°39' E 121°29'0 0.0
2015-Jun-29 05:32N 37°39' E 121°29'0 0.1
2015-Jun-29 04:32N 37°39' E 121°29'0 0.0
2015-Jun-29 03:32N 37°39' E 121°29'0 0.0
2015-Jun-29 02:32N 37°39' E 121°29'0 0.0
2015-Jun-29 01:32N 37°39' E 121°29'0 0.1
2015-Jun-29 00:32N 37°39' E 121°29'0 0.0
2015-Jun-28 23:32N 37°39' E 121°29'0 0.0
2015-Jun-28 22:32N 37°39' E 121°29'0 0.0
2015-Jun-28 21:32N 37°39' E 121°29'0 0.0
2015-Jun-28 20:32N 37°39' E 121°29'0 0.0
2015-Jun-28 19:32N 37°39' E 121°29'0 0.0
2015-Jun-28 18:32N 37°39' E 121°29'0 0.0
2015-Jun-28 17:32N 37°39' E 121°29'0 0.0
2015-Jun-28 16:32N 37°39' E 121°29'0 0.0
2015-Jun-28 15:32N 37°39' E 121°29'0 0.0
2015-Jun-28 14:32N 37°39' E 121°29'0 0.0
2015-Jun-28 13:32N 37°39' E 121°29'0 0.0
2015-Jun-28 12:32N 37°39' E 121°29'0 0.0
2015-Jun-28 11:32N 37°39' E 121°29'0 0.0
2015-Jun-28 10:32N 37°39' E 121°29'0 0.0
2015-Jun-28 09:32N 37°39' E 121°29'0 0.1
2015-Jun-28 08:32N 37°39' E 121°29'0 0.0
2015-Jun-28 07:32N 37°39' E 121°29'0 0.0
2015-Jun-28 06:32N 37°39' E 121°29'0 0.0
2015-Jun-28 05:32N 37°39' E 121°29'0 0.0
2015-Jun-28 04:32N 37°39' E 121°29'0 0.0
2015-Jun-28 03:32N 37°39' E 121°29'0 0.0
2015-Jun-28 02:32N 37°39' E 121°29'0 0.0
2015-Jun-28 01:32N 37°39' E 121°29'0 0.1
2015-Jun-28 00:32N 37°39' E 121°29'0 0.0
2015-Jun-27 23:32N 37°39' E 121°29'0 0.0
2015-Jun-27 22:32N 37°39' E 121°29'0 0.0
2015-Jun-27 21:32N 37°39' E 121°29'0 0.0
2015-Jun-27 20:32N 37°39' E 121°29'0 0.0
2015-Jun-27 19:32N 37°39' E 121°29'0 0.0
2015-Jun-27 18:32N 37°39' E 121°29'0 0.0
2015-Jun-27 17:26N 37°39' E 121°29'0 0.0
2015-Jun-27 16:32N 37°39' E 121°29'0 0.0
2015-Jun-27 15:32N 37°39' E 121°29'0 0.0
2015-Jun-27 14:32N 37°39' E 121°29'0 0.0
2015-Jun-27 13:32N 37°39' E 121°29'0 0.0
2015-Jun-27 12:32N 37°39' E 121°29'0 0.0
2015-Jun-27 11:32N 37°39' E 121°29'0 0.0
2015-Jun-27 10:32N 37°39' E 121°29'0 0.0
2015-Jun-27 09:32N 37°39' E 121°29'0 0.0
2015-Jun-27 08:32N 37°39' E 121°29'0 0.0
2015-Jun-27 07:32N 37°39' E 121°29'0 0.0
2015-Jun-27 06:32N 37°39' E 121°29'0 0.0
2015-Jun-27 05:32N 37°39' E 121°29'0 0.0
2015-Jun-27 04:32N 37°39' E 121°29'0 0.0
2015-Jun-27 03:32N 37°39' E 121°29'0 0.0
2015-Jun-27 02:29N 37°39' E 121°29'0 0.0
2015-Jun-27 01:29N 37°39' E 121°29'0 0.0
2015-Jun-27 00:32N 37°39' E 121°29'0 0.1
2015-Jun-26 23:32N 37°39' E 121°29'0 0.0
2015-Jun-26 22:32N 37°39' E 121°29'0 0.0
2015-Jun-26 21:29N 37°39' E 121°29'0 0.0
2015-Jun-26 20:32N 37°39' E 121°29'0 0.0
2015-Jun-26 19:32N 37°39' E 121°29'0 0.0
2015-Jun-26 18:26N 37°39' E 121°29'0 0.0
2015-Jun-26 17:32N 37°39' E 121°29'0 0.0
2015-Jun-26 16:32N 37°39' E 121°29'0 0.0
2015-Jun-26 15:32N 37°39' E 121°29'0 0.0
2015-Jun-26 14:32N 37°39' E 121°29'0 0.0
2015-Jun-26 13:32N 37°39' E 121°29'0 0.0
2015-Jun-26 12:32N 37°39' E 121°29'0 0.0
2015-Jun-26 11:32N 37°39' E 121°29'0 0.0
2015-Jun-26 10:32N 37°39' E 121°29'0 0.0
2015-Jun-26 09:32N 37°39' E 121°29'0 0.0
2015-Jun-26 08:29N 37°39' E 121°29'0 0.0
2015-Jun-26 07:32N 37°39' E 121°29'0 0.0
2015-Jun-26 06:32N 37°39' E 121°29'0 0.0
2015-Jun-26 05:29N 37°39' E 121°29'0 0.0
2015-Jun-26 04:32N 37°39' E 121°29'0 0.0
2015-Jun-26 03:32N 37°39' E 121°29'0 0.0
2015-Jun-26 02:32N 37°39' E 121°29'0 0.0
2015-Jun-26 01:32N 37°39' E 121°29'0 0.0
2015-Jun-26 00:32N 37°39' E 121°29'0 0.0
2015-Jun-25 23:32N 37°39' E 121°29'0 0.0
2015-Jun-25 22:32N 37°39' E 121°29'0 0.0
2015-Jun-25 21:32N 37°39' E 121°29'0 0.0
2015-Jun-25 20:32N 37°39' E 121°29'0 0.0
2015-Jun-25 19:32N 37°39' E 121°29'0 0.0
2015-Jun-25 18:32N 37°39' E 121°29'0 0.0
2015-Jun-25 17:32N 37°39' E 121°29'0 0.0
2015-Jun-25 16:32N 37°39' E 121°29'0 0.1
2015-Jun-25 15:32N 37°39' E 121°29'0 0.0
2015-Jun-25 14:32N 37°39' E 121°29'0 0.0
2015-Jun-25 13:32N 37°39' E 121°29'0 0.0
2015-Jun-25 12:32N 37°39' E 121°29'0 0.0
2015-Jun-25 11:32N 37°39' E 121°29'0 0.0
2015-Jun-25 10:32N 37°39' E 121°29'0 0.0
2015-Jun-25 09:32N 37°39' E 121°29'0 0.0
2015-Jun-25 08:32N 37°39' E 121°29'0 0.0
2015-Jun-25 07:32N 37°39' E 121°29'0 0.0
2015-Jun-25 06:32N 37°39' E 121°29'0 0.0
2015-Jun-25 05:32N 37°39' E 121°29'0 0.1
2015-Jun-25 04:32N 37°39' E 121°29'0 0.0
2015-Jun-25 03:32N 37°39' E 121°29'0 0.0
2015-Jun-25 02:32N 37°39' E 121°29'0 0.0
2015-Jun-25 01:32N 37°39' E 121°29'0 0.0
2015-Jun-25 00:26N 37°39' E 121°29'0 0.0
2015-Jun-24 23:32N 37°39' E 121°29'0 0.1
2015-Jun-24 22:29N 37°39' E 121°29'0 0.1
2015-Jun-24 21:32N 37°39' E 121°29'0 0.0
2015-Jun-24 20:32N 37°39' E 121°29'0 0.0
2015-Jun-24 19:32N 37°39' E 121°29'0 0.0
2015-Jun-24 18:32N 37°39' E 121°29'0 0.0
2015-Jun-24 17:32N 37°39' E 121°29'  
Track history (hours):
 
Tides and Currents Weather Stations Pressure Air Temp Water Temp Dewpoint Dewpoint Depression Visibility Wind Speed Wind Dir Waves Ship Positions

Chang Sheng

Last reported at 2015-Jul-04 17:24 UTC. Time now 2015-Jul-05 06:05 UTC.
Position N 37°42' E 122°35'.

Length 86 m; draft 5.1 m.

Type: Cargo ship. MMSI: 312161000.

Date/timePositionNaut miles runAvg speedWind from/ knotsBaromVisibWave heightAir tempDewpointWater temp
2015-Jul-04 17:24N 37°42' E 122°35'4310.3
2015-Jul-04 13:12N 38°07' E 121°51'2110.0
2015-Jul-04 11:08N 38°18' E 121°28'610.0
2015-Jul-04 10:34N 38°21' E 121°22'78 8.7
2015-Jul-04 01:32N 38°42' E 119°45'1010.3
2015-Jul-04 00:31N 38°43' E 119°32'78 9.8
2015-Jul-03 16:33N 38°57' E 117°54'6 6.3
2015-Jul-03 15:33N 38°59' E 117°46'0 0.0
2015-Jul-03 14:24N 38°59' E 117°46'0 0.0
2015-Jul-03 13:30N 38°59' E 117°46'0 0.0
2015-Jul-03 12:30N 38°59' E 117°46'0 0.0
2015-Jul-03 11:30N 38°59' E 117°46'0 0.0
2015-Jul-03 10:30N 38°59' E 117°46'0 0.0
2015-Jul-03 09:18N 38°59' E 117°46'0 0.0
2015-Jul-03 08:30N 38°59' E 117°46'0 0.0
2015-Jul-03 07:30N 38°59' E 117°46'0 0.0
2015-Jul-03 06:30N 38°59' E 117°46'0 0.0
2015-Jul-03 05:30N 38°59' E 117°46'0 0.0
2015-Jul-03 04:30N 38°59' E 117°46'0 0.0
2015-Jul-03 03:30N 38°59' E 117°46'0 0.0
2015-Jul-03 02:30N 38°59' E 117°46'0 0.0
2015-Jul-03 01:24N 38°59' E 117°46'0 0.0
2015-Jul-03 00:29N 38°59' E 117°46'0 0.0
2015-Jul-02 23:29N 38°59' E 117°46'0 0.0
2015-Jul-02 22:33N 38°59' E 117°46'8 7.8
2015-Jul-02 21:33N 38°57' E 117°55'13 5.9
2015-Jul-02 19:23N 38°53' E 118°11'43 8.6
2015-Jul-02 14:19N 38°43' E 119°05'7 8.6
2015-Jul-02 13:33N 38°40' E 119°13'8 8.5
2015-Jul-02 12:33N 38°36' E 119°22'8 8.5
2015-Jul-02 11:33N 38°31' E 119°31'8 8.3
2015-Jul-02 10:33N 38°27' E 119°40'9 8.7
2015-Jul-02 09:32N 38°23' E 119°50'10 9.9
2015-Jul-02 08:32N 38°18' E 120°01'2311.3
2015-Jul-02 06:30N 38°06' E 120°26'1111.7
2015-Jul-02 05:31N 38°02' E 120°40'1212.1
2015-Jul-02 04:33N 37°60' E 120°54'1111.1
2015-Jul-02 03:32N 37°53' E 121°06'1110.8
2015-Jul-02 02:30N 37°44' E 121°15'7 7.1
2015-Jul-02 01:33N 37°38' E 121°15'5 4.8
2015-Jul-02 00:25N 37°38' E 121°08'0 0.0
2015-Jul-01 23:31N 37°38' E 121°08'0 0.0
2015-Jul-01 22:31N 37°38' E 121°08'0 0.0
2015-Jul-01 21:31N 37°38' E 121°08'0 0.0
2015-Jul-01 20:28N 37°38' E 121°08'0 0.0
2015-Jul-01 19:31N 37°38' E 121°08'0 0.0
2015-Jul-01 18:31N 37°38' E 121°08'0 0.0
2015-Jul-01 17:31N 37°38' E 121°08'0 0.0
2015-Jul-01 16:31N 37°38' E 121°08'0 0.0
2015-Jul-01 15:31N 37°38' E 121°08'0 0.0
2015-Jul-01 14:31N 37°38' E 121°08'0 0.0
2015-Jul-01 13:31N 37°38' E 121°08'0 0.0
2015-Jul-01 12:31N 37°38' E 121°08'0 0.0
2015-Jul-01 11:31N 37°38' E 121°08'0 0.0
2015-Jul-01 10:31N 37°38' E 121°08'0 0.0
2015-Jul-01 09:31N 37°38' E 121°08'0 0.0
2015-Jul-01 08:28N 37°38' E 121°08'0 0.0
2015-Jul-01 07:28N 37°38' E 121°08'0 0.0
2015-Jul-01 06:16N 37°38' E 121°08'0 0.0
2015-Jul-01 05:31N 37°38' E 121°08'0 0.0
2015-Jul-01 04:31N 37°38' E 121°08'0 0.0
2015-Jul-01 03:31N 37°38' E 121°08'0 0.0
2015-Jul-01 02:31N 37°38' E 121°08'0 0.0
2015-Jul-01 01:25N 37°38' E 121°08'0 0.0
2015-Jul-01 00:31N 37°38' E 121°08'0 0.0
2015-Jun-30 23:32N 37°38' E 121°08'0 0.0
2015-Jun-30 22:29N 37°38' E 121°08'0 0.0
2015-Jun-30 21:32N 37°38' E 121°08'0 0.0
2015-Jun-30 20:32N 37°38' E 121°08'0 0.0
2015-Jun-30 19:32N 37°38' E 121°08'0 0.0
2015-Jun-30 18:32N 37°38' E 121°08'0 0.0
2015-Jun-30 17:32N 37°38' E 121°08'0 0.0
2015-Jun-30 16:32N 37°38' E 121°08'0 0.0
2015-Jun-30 15:29N 37°38' E 121°08'0 0.0
2015-Jun-30 14:32N 37°38' E 121°08'0 0.0
2015-Jun-30 13:32N 37°38' E 121°08'0 0.0
2015-Jun-30 12:32N 37°38' E 121°08'0 0.0
2015-Jun-30 11:26N 37°38' E 121°08'0 0.0
2015-Jun-30 10:29N 37°38' E 121°08'0 0.0
2015-Jun-30 09:32N 37°38' E 121°08'0 0.0
2015-Jun-30 08:32N 37°38' E 121°08'0 0.0
2015-Jun-30 07:32N 37°38' E 121°08'0 0.0
2015-Jun-30 06:32N 37°38' E 121°08'0 0.0
2015-Jun-30 05:32N 37°38' E 121°08'0 0.0
2015-Jun-30 04:32N 37°38' E 121°08'0 0.0
2015-Jun-30 03:32N 37°38' E 121°08'2 1.7
2015-Jun-30 02:33N 37°37' E 121°10'8 7.8
2015-Jun-30 01:33N 37°40' E 121°20'7 7.2
2015-Jun-30 00:34N 37°39' E 121°29'0 0.3
2015-Jun-29 23:32N 37°39' E 121°29'0 0.0
2015-Jun-29 22:32N 37°39' E 121°29'0 0.0
2015-Jun-29 21:32N 37°39' E 121°29'0 0.0
2015-Jun-29 20:32N 37°39' E 121°29'0 0.0
2015-Jun-29 19:32N 37°39' E 121°29'0 0.0
2015-Jun-29 18:32N 37°39' E 121°29'0 0.0
2015-Jun-29 17:32N 37°39' E 121°29'0 0.0
2015-Jun-29 16:32N 37°39' E 121°29'0 0.0
2015-Jun-29 15:32N 37°39' E 121°29'0 0.0
2015-Jun-29 14:32N 37°39' E 121°29'0 0.0
2015-Jun-29 13:32N 37°39' E 121°29'0 0.0
2015-Jun-29 12:32N 37°39' E 121°29'0 0.0
2015-Jun-29 11:32N 37°39' E 121°29'0 0.0
2015-Jun-29 10:32N 37°39' E 121°29'0 0.0
2015-Jun-29 09:29N 37°39' E 121°29'0 0.0
2015-Jun-29 08:32N 37°39' E 121°29'0 0.0
2015-Jun-29 07:32N 37°39' E 121°29'0 0.1
2015-Jun-29 06:32N 37°39' E 121°29'0 0.0
2015-Jun-29 05:32N 37°39' E 121°29'0 0.1
2015-Jun-29 04:32N 37°39' E 121°29'0 0.0
2015-Jun-29 03:32N 37°39' E 121°29'0 0.0
2015-Jun-29 02:32N 37°39' E 121°29'0 0.0
2015-Jun-29 01:32N 37°39' E 121°29'0 0.1
2015-Jun-29 00:32N 37°39' E 121°29'0 0.0
2015-Jun-28 23:32N 37°39' E 121°29'0 0.0
2015-Jun-28 22:32N 37°39' E 121°29'0 0.0
2015-Jun-28 21:32N 37°39' E 121°29'0 0.0
2015-Jun-28 20:32N 37°39' E 121°29'0 0.0
2015-Jun-28 19:32N 37°39' E 121°29'0 0.0
2015-Jun-28 18:32N 37°39' E 121°29'0 0.0
2015-Jun-28 17:32N 37°39' E 121°29'0 0.0
2015-Jun-28 16:32N 37°39' E 121°29'0 0.0
2015-Jun-28 15:32N 37°39' E 121°29'0 0.0
2015-Jun-28 14:32N 37°39' E 121°29'0 0.0
2015-Jun-28 13:32N 37°39' E 121°29'0 0.0
2015-Jun-28 12:32N 37°39' E 121°29'0 0.0
2015-Jun-28 11:32N 37°39' E 121°29'0 0.0
2015-Jun-28 10:32N 37°39' E 121°29'0 0.0
2015-Jun-28 09:32N 37°39' E 121°29'0 0.1
2015-Jun-28 08:32N 37°39' E 121°29'0 0.0
2015-Jun-28 07:32N 37°39' E 121°29'0 0.0
2015-Jun-28 06:32N 37°39' E 121°29'0 0.0
2015-Jun-28 05:32N 37°39' E 121°29'0 0.0
2015-Jun-28 04:32N 37°39' E 121°29'0 0.0
2015-Jun-28 03:32N 37°39' E 121°29'0 0.0
2015-Jun-28 02:32N 37°39' E 121°29'0 0.0
2015-Jun-28 01:32N 37°39' E 121°29'0 0.1
2015-Jun-28 00:32N 37°39' E 121°29'0 0.0
2015-Jun-27 23:32N 37°39' E 121°29'0 0.0
2015-Jun-27 22:32N 37°39' E 121°29'0 0.0
2015-Jun-27 21:32N 37°39' E 121°29'0 0.0
2015-Jun-27 20:32N 37°39' E 121°29'0 0.0
2015-Jun-27 19:32N 37°39' E 121°29'0 0.0
2015-Jun-27 18:32N 37°39' E 121°29'0 0.0
2015-Jun-27 17:26N 37°39' E 121°29'0 0.0
2015-Jun-27 16:32N 37°39' E 121°29'0 0.0
2015-Jun-27 15:32N 37°39' E 121°29'0 0.0
2015-Jun-27 14:32N 37°39' E 121°29'0 0.0
2015-Jun-27 13:32N 37°39' E 121°29'0 0.0
2015-Jun-27 12:32N 37°39' E 121°29'0 0.0
2015-Jun-27 11:32N 37°39' E 121°29'0 0.0
2015-Jun-27 10:32N 37°39' E 121°29'0 0.0
2015-Jun-27 09:32N 37°39' E 121°29'0 0.0
2015-Jun-27 08:32N 37°39' E 121°29'0 0.0
2015-Jun-27 07:32N 37°39' E 121°29'0 0.0
2015-Jun-27 06:32N 37°39' E 121°29'0 0.0
2015-Jun-27 05:32N 37°39' E 121°29'0 0.0
2015-Jun-27 04:32N 37°39' E 121°29'0 0.0
2015-Jun-27 03:32N 37°39' E 121°29'0 0.0
2015-Jun-27 02:29N 37°39' E 121°29'0 0.0
2015-Jun-27 01:29N 37°39' E 121°29'0 0.0
2015-Jun-27 00:32N 37°39' E 121°29'0 0.1
2015-Jun-26 23:32N 37°39' E 121°29'0 0.0
2015-Jun-26 22:32N 37°39' E 121°29'0 0.0
2015-Jun-26 21:29N 37°39' E 121°29'0 0.0
2015-Jun-26 20:32N 37°39' E 121°29'0 0.0
2015-Jun-26 19:32N 37°39' E 121°29'0 0.0
2015-Jun-26 18:26N 37°39' E 121°29'0 0.0
2015-Jun-26 17:32N 37°39' E 121°29'0 0.0
2015-Jun-26 16:32N 37°39' E 121°29'0 0.0
2015-Jun-26 15:32N 37°39' E 121°29'0 0.0
2015-Jun-26 14:32N 37°39' E 121°29'0 0.0
2015-Jun-26 13:32N 37°39' E 121°29'0 0.0
2015-Jun-26 12:32N 37°39' E 121°29'0 0.0
2015-Jun-26 11:32N 37°39' E 121°29'0 0.0
2015-Jun-26 10:32N 37°39' E 121°29'0 0.0
2015-Jun-26 09:32N 37°39' E 121°29'0 0.0
2015-Jun-26 08:29N 37°39' E 121°29'0 0.0
2015-Jun-26 07:32N 37°39' E 121°29'0 0.0
2015-Jun-26 06:32N 37°39' E 121°29'0 0.0
2015-Jun-26 05:29N 37°39' E 121°29'0 0.0
2015-Jun-26 04:32N 37°39' E 121°29'0 0.0
2015-Jun-26 03:32N 37°39' E 121°29'0 0.0
2015-Jun-26 02:32N 37°39' E 121°29'0 0.0
2015-Jun-26 01:32N 37°39' E 121°29'0 0.0
2015-Jun-26 00:32N 37°39' E 121°29'0 0.0
2015-Jun-25 23:32N 37°39' E 121°29'0 0.0
2015-Jun-25 22:32N 37°39' E 121°29'0 0.0
2015-Jun-25 21:32N 37°39' E 121°29'0 0.0
2015-Jun-25 20:32N 37°39' E 121°29'0 0.0
2015-Jun-25 19:32N 37°39' E 121°29'0 0.0
2015-Jun-25 18:32N 37°39' E 121°29'0 0.0
2015-Jun-25 17:32N 37°39' E 121°29'0 0.0
2015-Jun-25 16:32N 37°39' E 121°29'0 0.1
2015-Jun-25 15:32N 37°39' E 121°29'0 0.0
2015-Jun-25 14:32N 37°39' E 121°29'0 0.0
2015-Jun-25 13:32N 37°39' E 121°29'0 0.0
2015-Jun-25 12:32N 37°39' E 121°29'0 0.0
2015-Jun-25 11:32N 37°39' E 121°29'0 0.0
2015-Jun-25 10:32N 37°39' E 121°29'0 0.0
2015-Jun-25 09:32N 37°39' E 121°29'0 0.0
2015-Jun-25 08:32N 37°39' E 121°29'0 0.0
2015-Jun-25 07:32N 37°39' E 121°29'0 0.0
2015-Jun-25 06:32N 37°39' E 121°29'0 0.0
2015-Jun-25 05:32N 37°39' E 121°29'0 0.1
2015-Jun-25 04:32N 37°39' E 121°29'0 0.0
2015-Jun-25 03:32N 37°39' E 121°29'0 0.0
2015-Jun-25 02:32N 37°39' E 121°29'0 0.0
2015-Jun-25 01:32N 37°39' E 121°29'0 0.0
2015-Jun-25 00:26N 37°39' E 121°29'0 0.0
2015-Jun-24 23:32N 37°39' E 121°29'0 0.1
2015-Jun-24 22:29N 37°39' E 121°29'0 0.1
2015-Jun-24 21:32N 37°39' E 121°29'0 0.0
2015-Jun-24 20:32N 37°39' E 121°29'0 0.0
2015-Jun-24 19:32N 37°39' E 121°29'0 0.0
2015-Jun-24 18:32N 37°39' E 121°29'0 0.0
2015-Jun-24 17:32N 37°39' E 121°29'  

Dump ship's entire track history